sensor_id;sensor_type;location;lat;lon;timestamp;P1;durP1;ratioP1;P2;durP2;ratioP2
70247;SDS011;57641;51.416;5.506;2023-03-03T00:00:13;32.67;;;14.38;;
70247;SDS011;57641;51.416;5.506;2023-03-03T00:02:39;38.65;;;17.35;;
70247;SDS011;57641;51.416;5.506;2023-03-03T00:05:05;39.20;;;16.60;;
70247;SDS011;57641;51.416;5.506;2023-03-03T00:07:31;34.67;;;16.15;;
70247;SDS011;57641;51.416;5.506;2023-03-03T00:09:57;34.83;;;16.17;;
70247;SDS011;57641;51.416;5.506;2023-03-03T00:12:27;39.17;;;16.52;;
70247;SDS011;57641;51.416;5.506;2023-03-03T00:14:54;35.05;;;16.00;;
70247;SDS011;57641;51.416;5.506;2023-03-03T00:17:24;36.50;;;16.35;;
70247;SDS011;57641;51.416;5.506;2023-03-03T00:19:56;33.50;;;14.82;;
70247;SDS011;57641;51.416;5.506;2023-03-03T00:22:29;38.80;;;16.33;;
70247;SDS011;57641;51.416;5.506;2023-03-03T00:27:55;36.08;;;17.20;;
70247;SDS011;57641;51.416;5.506;2023-03-03T00:30:26;35.30;;;15.07;;
70247;SDS011;57641;51.416;5.506;2023-03-03T00:32:52;37.28;;;16.58;;
70247;SDS011;57641;51.416;5.506;2023-03-03T00:35:37;44.10;;;18.00;;
70247;SDS011;57641;51.416;5.506;2023-03-03T00:38:11;41.75;;;18.10;;
70247;SDS011;57641;51.416;5.506;2023-03-03T00:40:41;36.25;;;15.82;;
70247;SDS011;57641;51.416;5.506;2023-03-03T00:43:17;44.90;;;18.67;;
70247;SDS011;57641;51.416;5.506;2023-03-03T00:45:52;44.05;;;18.23;;
70247;SDS011;57641;51.416;5.506;2023-03-03T00:48:30;40.50;;;17.08;;
70247;SDS011;57641;51.416;5.506;2023-03-03T00:51:08;37.03;;;17.23;;
70247;SDS011;57641;51.416;5.506;2023-03-03T00:53:35;42.00;;;17.42;;
70247;SDS011;57641;51.416;5.506;2023-03-03T00:56:00;42.85;;;18.55;;
70247;SDS011;57641;51.416;5.506;2023-03-03T00:58:26;61.72;;;20.42;;
70247;SDS011;57641;51.416;5.506;2023-03-03T01:00:52;44.13;;;17.67;;
70247;SDS011;57641;51.416;5.506;2023-03-03T01:03:21;48.30;;;18.95;;
70247;SDS011;57641;51.416;5.506;2023-03-03T01:05:49;38.67;;;17.95;;
70247;SDS011;57641;51.416;5.506;2023-03-03T01:08:15;41.65;;;17.95;;
70247;SDS011;57641;51.416;5.506;2023-03-03T01:10:47;44.00;;;17.50;;
70247;SDS011;57641;51.416;5.506;2023-03-03T01:13:21;40.60;;;17.57;;
70247;SDS011;57641;51.416;5.506;2023-03-03T01:15:51;43.28;;;18.50;;
70247;SDS011;57641;51.416;5.506;2023-03-03T01:18:17;38.53;;;15.82;;
70247;SDS011;57641;51.416;5.506;2023-03-03T01:20:44;37.78;;;15.82;;
70247;SDS011;57641;51.416;5.506;2023-03-03T01:23:09;40.22;;;15.57;;
70247;SDS011;57641;51.416;5.506;2023-03-03T01:25:35;43.10;;;17.17;;
70247;SDS011;57641;51.416;5.506;2023-03-03T01:28:00;42.10;;;17.65;;
70247;SDS011;57641;51.416;5.506;2023-03-03T01:30:27;40.60;;;16.92;;
70247;SDS011;57641;51.416;5.506;2023-03-03T01:32:53;34.83;;;15.77;;
70247;SDS011;57641;51.416;5.506;2023-03-03T01:35:19;33.05;;;14.05;;
70247;SDS011;57641;51.416;5.506;2023-03-03T01:37:45;36.55;;;15.70;;
70247;SDS011;57641;51.416;5.506;2023-03-03T01:40:13;38.53;;;14.88;;
70247;SDS011;57641;51.416;5.506;2023-03-03T01:42:40;36.05;;;15.85;;
70247;SDS011;57641;51.416;5.506;2023-03-03T01:45:15;37.50;;;16.73;;
70247;SDS011;57641;51.416;5.506;2023-03-03T01:47:57;36.92;;;15.60;;
70247;SDS011;57641;51.416;5.506;2023-03-03T01:50:37;37.33;;;15.90;;
70247;SDS011;57641;51.416;5.506;2023-03-03T01:53:17;39.10;;;16.15;;
70247;SDS011;57641;51.416;5.506;2023-03-03T01:55:45;32.22;;;14.65;;
70247;SDS011;57641;51.416;5.506;2023-03-03T01:58:16;35.90;;;15.15;;
70247;SDS011;57641;51.416;5.506;2023-03-03T02:00:52;36.57;;;15.07;;
70247;SDS011;57641;51.416;5.506;2023-03-03T02:03:27;39.10;;;15.02;;
70247;SDS011;57641;51.416;5.506;2023-03-03T02:05:56;35.58;;;14.13;;
70247;SDS011;57641;51.416;5.506;2023-03-03T02:08:28;35.42;;;14.40;;
70247;SDS011;57641;51.416;5.506;2023-03-03T02:10:59;36.20;;;14.10;;
70247;SDS011;57641;51.416;5.506;2023-03-03T02:13:27;32.22;;;14.43;;
70247;SDS011;57641;51.416;5.506;2023-03-03T02:15:53;28.73;;;12.25;;
70247;SDS011;57641;51.416;5.506;2023-03-03T02:18:29;37.25;;;14.55;;
70247;SDS011;57641;51.416;5.506;2023-03-03T02:26:25;41.90;;;16.92;;
70247;SDS011;57641;51.416;5.506;2023-03-03T02:28:52;36.92;;;14.90;;
70247;SDS011;57641;51.416;5.506;2023-03-03T02:31:19;34.13;;;14.07;;
70247;SDS011;57641;51.416;5.506;2023-03-03T02:33:47;38.30;;;14.30;;
70247;SDS011;57641;51.416;5.506;2023-03-03T02:36:18;36.33;;;15.18;;
70247;SDS011;57641;51.416;5.506;2023-03-03T02:38:55;41.78;;;16.50;;
70247;SDS011;57641;51.416;5.506;2023-03-03T02:44:11;37.00;;;14.68;;
70247;SDS011;57641;51.416;5.506;2023-03-03T02:46:42;37.97;;;14.70;;
70247;SDS011;57641;51.416;5.506;2023-03-03T02:49:10;35.25;;;14.02;;
70247;SDS011;57641;51.416;5.506;2023-03-03T02:51:38;34.60;;;15.70;;
70247;SDS011;57641;51.416;5.506;2023-03-03T02:54:05;41.25;;;14.93;;
70247;SDS011;57641;51.416;5.506;2023-03-03T02:56:32;38.22;;;14.77;;
70247;SDS011;57641;51.416;5.506;2023-03-03T02:58:59;38.33;;;15.98;;
70247;SDS011;57641;51.416;5.506;2023-03-03T03:01:24;42.78;;;15.35;;
70247;SDS011;57641;51.416;5.506;2023-03-03T03:03:50;34.63;;;14.27;;
70247;SDS011;57641;51.416;5.506;2023-03-03T03:06:15;34.45;;;14.85;;
70247;SDS011;57641;51.416;5.506;2023-03-03T03:08:42;42.22;;;16.98;;
70247;SDS011;57641;51.416;5.506;2023-03-03T03:11:07;36.92;;;14.48;;
70247;SDS011;57641;51.416;5.506;2023-03-03T03:13:34;38.88;;;15.35;;
70247;SDS011;57641;51.416;5.506;2023-03-03T03:15:59;35.03;;;15.25;;
70247;SDS011;57641;51.416;5.506;2023-03-03T03:18:26;40.45;;;15.55;;
70247;SDS011;57641;51.416;5.506;2023-03-03T03:20:52;36.75;;;14.43;;
70247;SDS011;57641;51.416;5.506;2023-03-03T03:23:17;40.50;;;15.48;;
70247;SDS011;57641;51.416;5.506;2023-03-03T03:25:46;35.40;;;15.70;;
70247;SDS011;57641;51.416;5.506;2023-03-03T03:28:16;34.03;;;13.80;;
70247;SDS011;57641;51.416;5.506;2023-03-03T03:30:43;37.58;;;15.35;;
70247;SDS011;57641;51.416;5.506;2023-03-03T03:33:09;36.30;;;14.70;;
70247;SDS011;57641;51.416;5.506;2023-03-03T03:35:36;33.50;;;13.70;;
70247;SDS011;57641;51.416;5.506;2023-03-03T03:38:02;42.20;;;16.70;;
70247;SDS011;57641;51.416;5.506;2023-03-03T03:40:28;36.45;;;14.52;;
70247;SDS011;57641;51.416;5.506;2023-03-03T03:42:54;41.92;;;16.27;;
70247;SDS011;57641;51.416;5.506;2023-03-03T03:45:20;35.05;;;14.35;;
70247;SDS011;57641;51.416;5.506;2023-03-03T03:47:46;34.92;;;13.75;;
70247;SDS011;57641;51.416;5.506;2023-03-03T03:50:12;41.97;;;13.65;;
70247;SDS011;57641;51.416;5.506;2023-03-03T03:52:38;31.27;;;12.57;;
70247;SDS011;57641;51.416;5.506;2023-03-03T03:55:04;37.00;;;13.98;;
70247;SDS011;57641;51.416;5.506;2023-03-03T03:57:30;38.65;;;14.57;;
70247;SDS011;57641;51.416;5.506;2023-03-03T03:59:56;39.05;;;15.02;;
70247;SDS011;57641;51.416;5.506;2023-03-03T04:02:22;36.38;;;14.18;;
70247;SDS011;57641;51.416;5.506;2023-03-03T04:04:48;38.20;;;13.98;;
70247;SDS011;57641;51.416;5.506;2023-03-03T04:07:13;38.42;;;14.43;;
70247;SDS011;57641;51.416;5.506;2023-03-03T04:09:39;31.58;;;12.52;;
70247;SDS011;57641;51.416;5.506;2023-03-03T04:12:05;45.75;;;16.27;;
70247;SDS011;57641;51.416;5.506;2023-03-03T04:14:31;37.65;;;14.48;;
70247;SDS011;57641;51.416;5.506;2023-03-03T04:16:57;43.85;;;15.07;;
70247;SDS011;57641;51.416;5.506;2023-03-03T04:19:22;40.45;;;14.82;;
70247;SDS011;57641;51.416;5.506;2023-03-03T04:21:48;36.15;;;13.90;;
70247;SDS011;57641;51.416;5.506;2023-03-03T04:24:13;41.83;;;14.90;;
70247;SDS011;57641;51.416;5.506;2023-03-03T04:26:39;38.05;;;14.05;;
70247;SDS011;57641;51.416;5.506;2023-03-03T04:29:05;40.67;;;14.80;;
70247;SDS011;57641;51.416;5.506;2023-03-03T04:31:31;42.47;;;15.73;;
70247;SDS011;57641;51.416;5.506;2023-03-03T04:33:57;40.58;;;15.95;;
70247;SDS011;57641;51.416;5.506;2023-03-03T04:36:22;40.78;;;15.60;;
70247;SDS011;57641;51.416;5.506;2023-03-03T04:38:48;38.80;;;13.77;;
70247;SDS011;57641;51.416;5.506;2023-03-03T04:41:14;38.90;;;14.75;;
70247;SDS011;57641;51.416;5.506;2023-03-03T04:43:40;37.35;;;14.55;;
70247;SDS011;57641;51.416;5.506;2023-03-03T04:46:06;37.15;;;14.13;;
70247;SDS011;57641;51.416;5.506;2023-03-03T04:48:32;39.65;;;14.60;;
70247;SDS011;57641;51.416;5.506;2023-03-03T04:50:57;25.75;;;11.02;;
70247;SDS011;57641;51.416;5.506;2023-03-03T04:53:23;36.58;;;13.55;;
70247;SDS011;57641;51.416;5.506;2023-03-03T04:55:50;36.40;;;14.10;;
70247;SDS011;57641;51.416;5.506;2023-03-03T04:58:16;36.22;;;13.23;;
70247;SDS011;57641;51.416;5.506;2023-03-03T05:00:44;33.92;;;13.23;;
70247;SDS011;57641;51.416;5.506;2023-03-03T05:03:11;37.53;;;13.90;;
70247;SDS011;57641;51.416;5.506;2023-03-03T05:05:37;33.70;;;14.43;;
70247;SDS011;57641;51.416;5.506;2023-03-03T05:08:05;28.30;;;12.50;;
70247;SDS011;57641;51.416;5.506;2023-03-03T05:10:31;31.17;;;11.60;;
70247;SDS011;57641;51.416;5.506;2023-03-03T05:12:56;35.20;;;14.07;;
70247;SDS011;57641;51.416;5.506;2023-03-03T05:15:22;37.03;;;14.82;;
70247;SDS011;57641;51.416;5.506;2023-03-03T05:17:47;35.60;;;13.88;;
70247;SDS011;57641;51.416;5.506;2023-03-03T05:20:13;40.28;;;14.95;;
70247;SDS011;57641;51.416;5.506;2023-03-03T05:22:39;30.70;;;13.82;;
70247;SDS011;57641;51.416;5.506;2023-03-03T05:25:04;42.08;;;15.75;;
70247;SDS011;57641;51.416;5.506;2023-03-03T05:27:31;33.90;;;12.75;;
70247;SDS011;57641;51.416;5.506;2023-03-03T05:29:57;35.65;;;14.13;;
70247;SDS011;57641;51.416;5.506;2023-03-03T05:32:25;34.35;;;12.73;;
70247;SDS011;57641;51.416;5.506;2023-03-03T05:34:51;36.65;;;14.43;;
70247;SDS011;57641;51.416;5.506;2023-03-03T05:37:17;31.10;;;12.50;;
70247;SDS011;57641;51.416;5.506;2023-03-03T05:39:42;31.55;;;13.25;;
70247;SDS011;57641;51.416;5.506;2023-03-03T05:42:10;35.13;;;12.80;;
70247;SDS011;57641;51.416;5.506;2023-03-03T05:44:37;35.85;;;12.95;;
70247;SDS011;57641;51.416;5.506;2023-03-03T05:47:03;35.38;;;13.80;;
70247;SDS011;57641;51.416;5.506;2023-03-03T05:49:28;34.13;;;12.60;;
70247;SDS011;57641;51.416;5.506;2023-03-03T05:51:54;32.33;;;12.13;;
70247;SDS011;57641;51.416;5.506;2023-03-03T05:54:19;37.05;;;13.40;;
70247;SDS011;57641;51.416;5.506;2023-03-03T05:56:45;34.60;;;11.82;;
70247;SDS011;57641;51.416;5.506;2023-03-03T05:59:10;32.97;;;12.10;;
70247;SDS011;57641;51.416;5.506;2023-03-03T06:01:36;31.95;;;11.23;;
70247;SDS011;57641;51.416;5.506;2023-03-03T06:04:01;31.35;;;10.80;;
70247;SDS011;57641;51.416;5.506;2023-03-03T06:06:27;30.33;;;11.60;;
70247;SDS011;57641;51.416;5.506;2023-03-03T06:08:52;37.65;;;12.93;;
70247;SDS011;57641;51.416;5.506;2023-03-03T06:11:18;34.00;;;12.25;;
70247;SDS011;57641;51.416;5.506;2023-03-03T06:13:44;38.05;;;13.73;;
70247;SDS011;57641;51.416;5.506;2023-03-03T06:16:09;36.92;;;12.65;;
70247;SDS011;57641;51.416;5.506;2023-03-03T06:18:35;36.47;;;13.27;;
70247;SDS011;57641;51.416;5.506;2023-03-03T06:21:01;33.67;;;12.38;;
70247;SDS011;57641;51.416;5.506;2023-03-03T06:23:26;31.40;;;11.80;;
70247;SDS011;57641;51.416;5.506;2023-03-03T06:25:52;34.30;;;13.80;;
70247;SDS011;57641;51.416;5.506;2023-03-03T06:28:17;33.85;;;12.00;;
70247;SDS011;57641;51.416;5.506;2023-03-03T06:30:43;38.08;;;14.00;;
70247;SDS011;57641;51.416;5.506;2023-03-03T06:33:09;36.45;;;13.48;;
70247;SDS011;57641;51.416;5.506;2023-03-03T06:35:35;34.67;;;13.48;;
70247;SDS011;57641;51.416;5.506;2023-03-03T06:38:03;36.55;;;13.93;;
70247;SDS011;57641;51.416;5.506;2023-03-03T06:40:29;33.30;;;13.75;;
70247;SDS011;57641;51.416;5.506;2023-03-03T06:42:54;38.70;;;13.63;;
70247;SDS011;57641;51.416;5.506;2023-03-03T06:45:19;31.83;;;12.38;;
70247;SDS011;57641;51.416;5.506;2023-03-03T06:47:45;36.58;;;13.50;;
70247;SDS011;57641;51.416;5.506;2023-03-03T06:50:10;33.92;;;11.80;;
70247;SDS011;57641;51.416;5.506;2023-03-03T06:52:37;38.35;;;14.13;;
70247;SDS011;57641;51.416;5.506;2023-03-03T06:55:09;33.88;;;13.80;;
70247;SDS011;57641;51.416;5.506;2023-03-03T06:57:36;26.55;;;10.57;;
70247;SDS011;57641;51.416;5.506;2023-03-03T07:02:44;16.80;;;7.43;;
70247;SDS011;57641;51.416;5.506;2023-03-03T07:05:12;38.60;;;11.95;;
70247;SDS011;57641;51.416;5.506;2023-03-03T07:07:40;31.48;;;10.98;;
70247;SDS011;57641;51.416;5.506;2023-03-03T07:10:06;34.53;;;12.45;;
70247;SDS011;57641;51.416;5.506;2023-03-03T07:12:48;35.35;;;12.23;;
70247;SDS011;57641;51.416;5.506;2023-03-03T07:15:24;34.30;;;12.10;;
70247;SDS011;57641;51.416;5.506;2023-03-03T07:17:58;34.40;;;13.00;;
70247;SDS011;57641;51.416;5.506;2023-03-03T07:20:29;34.72;;;11.65;;
70247;SDS011;57641;51.416;5.506;2023-03-03T07:22:59;35.42;;;12.90;;
70247;SDS011;57641;51.416;5.506;2023-03-03T07:25:31;34.97;;;12.45;;
70247;SDS011;57641;51.416;5.506;2023-03-03T07:30:57;33.95;;;13.68;;
70247;SDS011;57641;51.416;5.506;2023-03-03T07:33:24;38.85;;;13.45;;
70247;SDS011;57641;51.416;5.506;2023-03-03T07:35:56;31.77;;;12.73;;
70247;SDS011;57641;51.416;5.506;2023-03-03T07:41:24;32.00;;;11.13;;
70247;SDS011;57641;51.416;5.506;2023-03-03T07:43:50;28.75;;;11.05;;
70247;SDS011;57641;51.416;5.506;2023-03-03T07:54:56;32.83;;;11.65;;
70247;SDS011;57641;51.416;5.506;2023-03-03T07:57:28;29.55;;;10.95;;
70247;SDS011;57641;51.416;5.506;2023-03-03T08:02:57;34.28;;;12.75;;
70247;SDS011;57641;51.416;5.506;2023-03-03T08:05:29;27.75;;;11.77;;
70247;SDS011;57641;51.416;5.506;2023-03-03T08:08:14;32.13;;;11.82;;
70247;SDS011;57641;51.416;5.506;2023-03-03T08:10:48;37.35;;;12.30;;
70247;SDS011;57641;51.416;5.506;2023-03-03T08:13:16;33.08;;;12.43;;
70247;SDS011;57641;51.416;5.506;2023-03-03T08:15:42;29.38;;;12.05;;
70247;SDS011;57641;51.416;5.506;2023-03-03T08:18:33;31.83;;;12.18;;
70247;SDS011;57641;51.416;5.506;2023-03-03T08:21:21;31.33;;;11.85;;
70247;SDS011;57641;51.416;5.506;2023-03-03T08:23:49;32.03;;;12.65;;
70247;SDS011;57641;51.416;5.506;2023-03-03T08:26:17;34.92;;;12.50;;
70247;SDS011;57641;51.416;5.506;2023-03-03T08:28:44;31.17;;;12.00;;
70247;SDS011;57641;51.416;5.506;2023-03-03T08:31:10;32.50;;;11.05;;
70247;SDS011;57641;51.416;5.506;2023-03-03T08:33:36;30.73;;;11.93;;
70247;SDS011;57641;51.416;5.506;2023-03-03T08:36:03;31.27;;;12.32;;
70247;SDS011;57641;51.416;5.506;2023-03-03T08:38:30;28.10;;;12.15;;
70247;SDS011;57641;51.416;5.506;2023-03-03T08:40:55;27.02;;;11.13;;
70247;SDS011;57641;51.416;5.506;2023-03-03T08:43:21;29.83;;;12.32;;
70247;SDS011;57641;51.416;5.506;2023-03-03T08:45:51;29.55;;;11.45;;
70247;SDS011;57641;51.416;5.506;2023-03-03T08:48:18;28.20;;;10.95;;
70247;SDS011;57641;51.416;5.506;2023-03-03T08:50:45;32.85;;;11.95;;
70247;SDS011;57641;51.416;5.506;2023-03-03T08:53:12;27.95;;;11.38;;
70247;SDS011;57641;51.416;5.506;2023-03-03T08:55:39;33.88;;;12.07;;
70247;SDS011;57641;51.416;5.506;2023-03-03T08:58:05;31.52;;;12.38;;
70247;SDS011;57641;51.416;5.506;2023-03-03T09:00:31;31.33;;;11.52;;
70247;SDS011;57641;51.416;5.506;2023-03-03T09:02:58;29.75;;;11.18;;
70247;SDS011;57641;51.416;5.506;2023-03-03T09:05:24;32.03;;;12.82;;
70247;SDS011;57641;51.416;5.506;2023-03-03T09:07:50;30.67;;;12.27;;
70247;SDS011;57641;51.416;5.506;2023-03-03T09:10:22;28.83;;;11.13;;
70247;SDS011;57641;51.416;5.506;2023-03-03T09:12:53;31.10;;;12.65;;
70247;SDS011;57641;51.416;5.506;2023-03-03T09:15:24;33.15;;;12.98;;
70247;SDS011;57641;51.416;5.506;2023-03-03T09:17:59;29.75;;;11.80;;
70247;SDS011;57641;51.416;5.506;2023-03-03T09:20:40;30.13;;;11.13;;
70247;SDS011;57641;51.416;5.506;2023-03-03T09:29:36;36.08;;;13.38;;
70247;SDS011;57641;51.416;5.506;2023-03-03T09:31:52;32.95;;;11.95;;
70247;SDS011;57641;51.416;5.506;2023-03-03T09:37:01;32.17;;;12.30;;
70247;SDS011;57641;51.416;5.506;2023-03-03T09:39:40;28.15;;;11.77;;
70247;SDS011;57641;51.416;5.506;2023-03-03T09:50:59;24.48;;;10.77;;
70247;SDS011;57641;51.416;5.506;2023-03-03T09:56:34;22.45;;;10.23;;
70247;SDS011;57641;51.416;5.506;2023-03-03T10:07:43;23.10;;;9.50;;
70247;SDS011;57641;51.416;5.506;2023-03-03T10:15:29;24.98;;;9.35;;
70247;SDS011;57641;51.416;5.506;2023-03-03T10:18:12;19.23;;;8.80;;
70247;SDS011;57641;51.416;5.506;2023-03-03T10:21:03;21.65;;;9.85;;
70247;SDS011;57641;51.416;5.506;2023-03-03T10:23:43;20.38;;;8.18;;
70247;SDS011;57641;51.416;5.506;2023-03-03T10:28:50;25.70;;;9.82;;
70247;SDS011;57641;51.416;5.506;2023-03-03T10:45:06;21.65;;;9.88;;
70247;SDS011;57641;51.416;5.506;2023-03-03T10:48:02;23.00;;;9.65;;
70247;SDS011;57641;51.416;5.506;2023-03-03T10:50:44;28.85;;;10.18;;
70247;SDS011;57641;51.416;5.506;2023-03-03T10:56:39;24.02;;;9.65;;
70247;SDS011;57641;51.416;5.506;2023-03-03T10:59:40;21.38;;;8.73;;
70247;SDS011;57641;51.416;5.506;2023-03-03T11:03:06;18.20;;;8.35;;
70247;SDS011;57641;51.416;5.506;2023-03-03T11:13:32;20.23;;;8.85;;
70247;SDS011;57641;51.416;5.506;2023-03-03T11:16:05;24.58;;;9.07;;
70247;SDS011;57641;51.416;5.506;2023-03-03T11:21:50;20.15;;;8.65;;
70247;SDS011;57641;51.416;5.506;2023-03-03T11:24:52;20.73;;;8.73;;
70247;SDS011;57641;51.416;5.506;2023-03-03T11:35:47;18.70;;;7.63;;
70247;SDS011;57641;51.416;5.506;2023-03-03T11:40:58;18.48;;;7.63;;
70247;SDS011;57641;51.416;5.506;2023-03-03T11:46:19;18.60;;;7.93;;
70247;SDS011;57641;51.416;5.506;2023-03-03T11:48:53;19.80;;;8.57;;
70247;SDS011;57641;51.416;5.506;2023-03-03T11:54:21;18.10;;;7.00;;
70247;SDS011;57641;51.416;5.506;2023-03-03T11:56:53;16.13;;;7.40;;
70247;SDS011;57641;51.416;5.506;2023-03-03T12:02:00;15.80;;;7.50;;
70247;SDS011;57641;51.416;5.506;2023-03-03T12:04:35;15.00;;;6.80;;
70247;SDS011;57641;51.416;5.506;2023-03-03T12:12:51;19.17;;;8.40;;
70247;SDS011;57641;51.416;5.506;2023-03-03T12:23:08;18.60;;;8.70;;
70247;SDS011;57641;51.416;5.506;2023-03-03T12:28:18;19.77;;;8.60;;
70247;SDS011;57641;51.416;5.506;2023-03-03T12:33:36;18.80;;;8.25;;
70247;SDS011;57641;51.416;5.506;2023-03-03T12:36:15;17.95;;;7.55;;
70247;SDS011;57641;51.416;5.506;2023-03-03T12:45:06;21.65;;;9.70;;
70247;SDS011;57641;51.416;5.506;2023-03-03T12:56:17;21.92;;;8.45;;
70247;SDS011;57641;51.416;5.506;2023-03-03T13:06:52;17.17;;;8.80;;
70247;SDS011;57641;51.416;5.506;2023-03-03T13:17:54;15.82;;;7.82;;
70247;SDS011;57641;51.416;5.506;2023-03-03T13:28:37;17.88;;;7.00;;
70247;SDS011;57641;51.416;5.506;2023-03-03T13:33:39;14.73;;;6.95;;
70247;SDS011;57641;51.416;5.506;2023-03-03T13:36:18;16.58;;;8.55;;
70247;SDS011;57641;51.416;5.506;2023-03-03T13:38:49;19.48;;;8.80;;
70247;SDS011;57641;51.416;5.506;2023-03-03T13:44:12;15.18;;;7.90;;
70247;SDS011;57641;51.416;5.506;2023-03-03T13:47:02;18.77;;;8.35;;
70247;SDS011;57641;51.416;5.506;2023-03-03T13:52:25;14.80;;;7.35;;
70247;SDS011;57641;51.416;5.506;2023-03-03T13:55:03;15.50;;;7.78;;
70247;SDS011;57641;51.416;5.506;2023-03-03T13:57:58;15.85;;;7.70;;
70247;SDS011;57641;51.416;5.506;2023-03-03T14:00:36;16.65;;;6.97;;
70247;SDS011;57641;51.416;5.506;2023-03-03T14:06:19;13.68;;;6.57;;
70247;SDS011;57641;51.416;5.506;2023-03-03T14:09:04;13.77;;;6.93;;
70247;SDS011;57641;51.416;5.506;2023-03-03T14:11:39;13.00;;;6.35;;
70247;SDS011;57641;51.416;5.506;2023-03-03T14:17:34;13.88;;;7.05;;
70247;SDS011;57641;51.416;5.506;2023-03-03T14:22:45;15.35;;;6.45;;
70247;SDS011;57641;51.416;5.506;2023-03-03T14:25:23;14.38;;;6.05;;
70247;SDS011;57641;51.416;5.506;2023-03-03T14:30:36;13.63;;;6.00;;
70247;SDS011;57641;51.416;5.506;2023-03-03T14:35:35;12.43;;;6.22;;
70247;SDS011;57641;51.416;5.506;2023-03-03T14:40:38;11.05;;;5.18;;
70247;SDS011;57641;51.416;5.506;2023-03-03T14:43:26;9.77;;;5.25;;
70247;SDS011;57641;51.416;5.506;2023-03-03T14:49:05;13.32;;;6.30;;
70247;SDS011;57641;51.416;5.506;2023-03-03T14:51:41;13.07;;;6.82;;
70247;SDS011;57641;51.416;5.506;2023-03-03T14:54:33;11.48;;;5.63;;
70247;SDS011;57641;51.416;5.506;2023-03-03T14:57:08;9.48;;;5.13;;
70247;SDS011;57641;51.416;5.506;2023-03-03T14:59:39;10.57;;;5.07;;
70247;SDS011;57641;51.416;5.506;2023-03-03T15:02:28;11.38;;;4.70;;
70247;SDS011;57641;51.416;5.506;2023-03-03T15:07:47;9.65;;;4.45;;
70247;SDS011;57641;51.416;5.506;2023-03-03T15:10:25;9.43;;;4.57;;
70247;SDS011;57641;51.416;5.506;2023-03-03T15:16:28;10.43;;;5.25;;
70247;SDS011;57641;51.416;5.506;2023-03-03T15:18:49;11.82;;;4.90;;
70247;SDS011;57641;51.416;5.506;2023-03-03T15:21:30;10.88;;;4.93;;
70247;SDS011;57641;51.416;5.506;2023-03-03T15:32:08;6.15;;;4.43;;
70247;SDS011;57641;51.416;5.506;2023-03-03T15:34:46;7.35;;;4.10;;
70247;SDS011;57641;51.416;5.506;2023-03-03T15:37:47;7.38;;;3.90;;
70247;SDS011;57641;51.416;5.506;2023-03-03T15:48:52;10.18;;;4.97;;
70247;SDS011;57641;51.416;5.506;2023-03-03T15:54:11;7.32;;;4.07;;
70247;SDS011;57641;51.416;5.506;2023-03-03T15:56:55;6.97;;;3.13;;
70247;SDS011;57641;51.416;5.506;2023-03-03T16:05:14;7.03;;;3.10;;
70247;SDS011;57641;51.416;5.506;2023-03-03T16:11:01;7.60;;;3.33;;
70247;SDS011;57641;51.416;5.506;2023-03-03T16:13:44;6.03;;;3.35;;
70247;SDS011;57641;51.416;5.506;2023-03-03T16:16:49;6.80;;;3.45;;
70247;SDS011;57641;51.416;5.506;2023-03-03T16:19:28;6.43;;;3.20;;
70247;SDS011;57641;51.416;5.506;2023-03-03T16:22:07;6.25;;;3.28;;
70247;SDS011;57641;51.416;5.506;2023-03-03T16:30:27;8.35;;;4.20;;
70247;SDS011;57641;51.416;5.506;2023-03-03T16:38:44;5.95;;;3.67;;
70247;SDS011;57641;51.416;5.506;2023-03-03T16:46:40;6.47;;;3.88;;
70247;SDS011;57641;51.416;5.506;2023-03-03T16:49:20;5.07;;;3.33;;
70247;SDS011;57641;51.416;5.506;2023-03-03T16:52:09;5.35;;;3.05;;
70247;SDS011;57641;51.416;5.506;2023-03-03T16:58:09;7.18;;;3.63;;
70247;SDS011;57641;51.416;5.506;2023-03-03T17:05:28;6.55;;;3.63;;
70247;SDS011;57641;51.416;5.506;2023-03-03T17:19:29;8.05;;;3.00;;
70247;SDS011;57641;51.416;5.506;2023-03-03T17:22:15;7.10;;;2.83;;
70247;SDS011;57641;51.416;5.506;2023-03-03T17:36:14;4.60;;;2.20;;
70247;SDS011;57641;51.416;5.506;2023-03-03T17:39:03;3.25;;;2.15;;
70247;SDS011;57641;51.416;5.506;2023-03-03T17:44:35;3.63;;;1.80;;
70247;SDS011;57641;51.416;5.506;2023-03-03T17:47:10;2.80;;;1.70;;
70247;SDS011;57641;51.416;5.506;2023-03-03T17:50:03;2.88;;;1.73;;
70247;SDS011;57641;51.416;5.506;2023-03-03T17:58:10;3.90;;;1.90;;
70247;SDS011;57641;51.416;5.506;2023-03-03T18:01:06;5.85;;;2.00;;
70247;SDS011;57641;51.416;5.506;2023-03-03T18:09:25;5.03;;;2.00;;
70247;SDS011;57641;51.416;5.506;2023-03-03T18:12:25;3.90;;;2.00;;
70247;SDS011;57641;51.416;5.506;2023-03-03T18:25:57;5.63;;;2.00;;
70247;SDS011;57641;51.416;5.506;2023-03-03T18:31:20;2.50;;;2.03;;
70247;SDS011;57641;51.416;5.506;2023-03-03T18:36:54;5.18;;;2.40;;
70247;SDS011;57641;51.416;5.506;2023-03-03T18:39:42;5.00;;;2.10;;
70247;SDS011;57641;51.416;5.506;2023-03-03T18:44:51;4.47;;;2.13;;
70247;SDS011;57641;51.416;5.506;2023-03-03T18:47:17;2.97;;;1.83;;
70247;SDS011;57641;51.416;5.506;2023-03-03T18:52:30;2.25;;;2.03;;
70247;SDS011;57641;51.416;5.506;2023-03-03T18:57:33;3.78;;;2.60;;
70247;SDS011;57641;51.416;5.506;2023-03-03T19:00:22;4.25;;;1.90;;
70247;SDS011;57641;51.416;5.506;2023-03-03T19:02:53;2.65;;;1.90;;
70247;SDS011;57641;51.416;5.506;2023-03-03T19:05:25;2.33;;;2.00;;
70247;SDS011;57641;51.416;5.506;2023-03-03T19:07:58;4.47;;;1.90;;
70247;SDS011;57641;51.416;5.506;2023-03-03T19:13:51;3.55;;;2.00;;
70247;SDS011;57641;51.416;5.506;2023-03-03T19:16:42;2.85;;;1.75;;
70247;SDS011;57641;51.416;5.506;2023-03-03T19:19:13;2.70;;;1.52;;
70247;SDS011;57641;51.416;5.506;2023-03-03T19:21:44;1.95;;;1.52;;
70247;SDS011;57641;51.416;5.506;2023-03-03T19:26:52;3.80;;;1.80;;
70247;SDS011;57641;51.416;5.506;2023-03-03T19:32:30;1.92;;;1.50;;
70247;SDS011;57641;51.416;5.506;2023-03-03T19:54:30;3.15;;;1.70;;
70247;SDS011;57641;51.416;5.506;2023-03-03T20:02:58;5.82;;;2.03;;
70247;SDS011;57641;51.416;5.506;2023-03-03T20:05:29;4.93;;;1.97;;
70247;SDS011;57641;51.416;5.506;2023-03-03T20:08:10;5.25;;;1.80;;
70247;SDS011;57641;51.416;5.506;2023-03-03T20:11:03;5.95;;;1.60;;
70247;SDS011;57641;51.416;5.506;2023-03-03T20:16:43;5.50;;;1.88;;
70247;SDS011;57641;51.416;5.506;2023-03-03T20:19:15;5.05;;;1.98;;
70247;SDS011;57641;51.416;5.506;2023-03-03T20:29:32;6.18;;;2.40;;
70247;SDS011;57641;51.416;5.506;2023-03-03T20:35:46;7.88;;;2.45;;
70247;SDS011;57641;51.416;5.506;2023-03-03T20:38:06;8.75;;;2.58;;
70247;SDS011;57641;51.416;5.506;2023-03-03T21:02:49;7.25;;;2.55;;
70247;SDS011;57641;51.416;5.506;2023-03-03T21:05:52;5.45;;;2.83;;
70247;SDS011;57641;51.416;5.506;2023-03-03T21:11:06;4.85;;;2.20;;
70247;SDS011;57641;51.416;5.506;2023-03-03T21:13:42;8.68;;;2.80;;
70247;SDS011;57641;51.416;5.506;2023-03-03T21:16:26;10.63;;;3.63;;
70247;SDS011;57641;51.416;5.506;2023-03-03T21:18:59;7.32;;;3.03;;
70247;SDS011;57641;51.416;5.506;2023-03-03T21:21:37;10.80;;;3.00;;
70247;SDS011;57641;51.416;5.506;2023-03-03T21:24:10;10.27;;;3.42;;
70247;SDS011;57641;51.416;5.506;2023-03-03T21:26:58;8.57;;;3.10;;
70247;SDS011;57641;51.416;5.506;2023-03-03T21:29:29;4.32;;;2.47;;
70247;SDS011;57641;51.416;5.506;2023-03-03T21:32:00;6.15;;;2.63;;